Sarasota, Florida
Current Conditions -  °F | °C
As of 9:53 PM on Sunday 21 Dec 2014 (Local Time) from KSRQ Reporting Station
Light Rain Light Rain  
Wind Chill: 69°   Ceiling: 6000
Heat Index: 69°   Visibility: 10mi
Dew Point: 65°   Wind: 7mph
Humidity: 87%   Direction: 180°S
Pressure: 30.03"   Gusts: NA
Location:  27.34°N, 82.54°W
Report Text: KSRQ 220253Z AUTO 18006KT 10SM -RA BKN060 OVC110 21/18 A3003 RMK AO2 SLP166 P0003 60006 T02060183 53008
Loading
Personal Weather Stations






























Interactive Weather Map New forecast layout! Learn more

10-Day Weather Forecast

Advertisements
Track Severe Weather on mobile